Time;durP1;ratioP1;P1;durP2;ratioP2;P2;SDS_P1;SDS_P2;PMS_P1;PMS_P2;Temp;Humidity;BMP_temperature;BMP_pressure;BME280_temperature;BME280_humidity;BME280_pressure;Samples;Min_cycle;Max_cycle;Signal;HPM_P1;HPM_P2
2022/05/06 00:00:48;;;;;;;;;;;23.00;41.70;;;;;;6164860;28;19929;-57
2022/05/06 00:03:49;;;;;;;;;;;23.10;41.80;;;;;;6177866;28;19941;-56
2022/05/06 00:06:50;;;;;;;;;;;23.20;41.90;;;;;;6182492;28;20048;-54
2022/05/06 00:09:52;;;;;;;;;;;22.90;41.70;;;;;;6176657;28;20908;-52
2022/05/06 00:12:55;;;;;;;;;;;23.10;41.80;;;;;;6178338;28;19969;-53
2022/05/06 00:15:56;;;;;;;;;;;22.80;41.70;;;;;;6180886;28;20039;-55
2022/05/06 00:18:58;;;;;;;;;;;23.30;42.00;;;;;;6182878;28;19921;-57
2022/05/06 00:21:59;;;;;;;;;;;23.30;42.10;;;;;;6184200;28;20043;-55
2022/05/06 00:25:01;;;;;;;;;;;22.80;41.80;;;;;;6177492;28;19925;-63
2022/05/06 00:28:03;;;;;;;;;;;23.00;41.90;;;;;;6186451;28;19929;-57
2022/05/06 00:31:06;;;;;;;;;;;23.10;42.00;;;;;;6186354;28;19992;-56
2022/05/06 00:34:09;;;;;;;;;;;23.00;41.90;;;;;;6169544;28;20003;-58
2022/05/06 00:37:11;;;;;;;;;;;23.10;42.00;;;;;;6178933;28;19968;-56
2022/05/06 00:40:14;;;;;;;;;;;22.70;41.90;;;;;;6185604;28;19980;-55
2022/05/06 00:43:15;;;;;;;;;;;22.90;41.90;;;;;;6182722;28;19995;-55
2022/05/06 00:46:16;;;;;;;;;;;22.70;42.00;;;;;;6165559;28;19930;-57
2022/05/06 00:49:19;;;;;;;;;;;22.90;42.00;;;;;;6183084;28;19930;-55
2022/05/06 00:52:20;;;;;;;;;;;23.20;42.20;;;;;;6185752;28;21114;-55
2022/05/06 00:55:23;;;;;;;;;;;23.00;42.10;;;;;;6174687;28;19930;-57
2022/05/06 00:58:29;;;;;;;;;;;22.70;42.00;;;;;;6187859;28;19925;-56
2022/05/06 01:01:30;;;;;;;;;;;23.00;42.10;;;;;;6172900;28;19956;-56
2022/05/06 01:04:31;;;;;;;;;;;23.00;42.10;;;;;;6176748;28;20007;-51
2022/05/06 01:07:33;;;;;;;;;;;22.80;42.00;;;;;;6184887;28;20804;-55
2022/05/06 01:10:36;;;;;;;;;;;23.10;42.10;;;;;;6171569;28;20040;-56
2022/05/06 01:13:39;;;;;;;;;;;23.10;42.20;;;;;;6186534;28;19979;-54
2022/05/06 01:16:41;;;;;;;;;;;23.20;42.20;;;;;;6181300;28;19921;-56
2022/05/06 01:19:45;;;;;;;;;;;22.90;42.00;;;;;;6180089;28;19925;-57
2022/05/06 01:22:48;;;;;;;;;;;22.80;42.10;;;;;;6180456;28;19935;-55
2022/05/06 01:25:49;;;;;;;;;;;22.80;42.10;;;;;;6186554;28;19936;-57
2022/05/06 01:28:51;;;;;;;;;;;22.60;42.00;;;;;;6168643;28;19936;-55
2022/05/06 01:31:53;;;;;;;;;;;23.00;42.20;;;;;;6185275;28;19929;-58
2022/05/06 01:34:56;;;;;;;;;;;22.80;42.10;;;;;;6183070;28;19936;-55
2022/05/06 01:38:02;;;;;;;;;;;23.00;42.30;;;;;;6183252;28;19929;-54
2022/05/06 01:41:06;;;;;;;;;;;23.10;42.30;;;;;;6182872;28;19932;-56
2022/05/06 01:44:16;;;;;;;;;;;22.90;42.20;;;;;;6182153;28;19936;-53
2022/05/06 01:47:23;;;;;;;;;;;22.50;42.00;;;;;;6180640;28;20790;-56
2022/05/06 01:50:27;;;;;;;;;;;23.00;42.20;;;;;;6182199;28;19932;-56
2022/05/06 01:53:29;;;;;;;;;;;22.60;42.00;;;;;;6180609;28;19976;-55
2022/05/06 01:56:30;;;;;;;;;;;22.90;42.20;;;;;;6186232;28;19921;-58
2022/05/06 01:59:33;;;;;;;;;;;22.50;42.00;;;;;;6183306;28;19929;-59
2022/05/06 02:02:46;;;;;;;;;;;22.90;42.20;;;;;;6185275;28;19928;-57
2022/05/06 02:05:55;;;;;;;;;;;23.00;42.90;;;;;;6183965;28;19948;-53
2022/05/06 02:08:58;;;;;;;;;;;22.80;42.20;;;;;;6178199;28;19932;-55
2022/05/06 02:12:10;;;;;;;;;;;22.40;42.00;;;;;;6180261;28;20051;-53
2022/05/06 02:15:33;;;;;;;;;;;23.00;42.30;;;;;;6175536;28;20873;-56
2022/05/06 02:18:54;;;;;;;;;;;22.50;42.10;;;;;;6183388;28;21017;-52
2022/05/06 02:22:16;;;;;;;;;;;22.70;42.20;;;;;;6182931;28;19931;-56
2022/05/06 02:25:24;;;;;;;;;;;22.70;42.20;;;;;;6185139;28;19939;-55
2022/05/06 02:28:30;;;;;;;;;;;22.80;42.20;;;;;;6182844;28;19928;-55
2022/05/06 02:34:54;;;;;;;;;;;22.90;42.20;;;;;;6169319;28;19922;-57
2022/05/06 02:37:55;;;;;;;;;;;23.00;42.40;;;;;;6179469;28;19937;-55
2022/05/06 02:41:01;;;;;;;;;;;22.90;42.40;;;;;;6172487;28;19979;-56
2022/05/06 02:44:09;;;;;;;;;;;22.80;42.30;;;;;;6178478;28;19929;-55
2022/05/06 02:47:16;;;;;;;;;;;22.80;42.30;;;;;;6179034;28;19929;-55
2022/05/06 02:50:20;;;;;;;;;;;22.70;42.30;;;;;;6172669;28;19929;-55
2022/05/06 02:53:21;;;;;;;;;;;22.60;42.30;;;;;;6153915;28;19935;-58
2022/05/06 02:56:24;;;;;;;;;;;22.50;42.20;;;;;;6176352;28;20003;-55
2022/05/06 02:59:31;;;;;;;;;;;22.70;42.30;;;;;;6165996;28;20484;-56
2022/05/06 03:02:32;;;;;;;;;;;22.50;42.20;;;;;;6174390;28;19936;-55
2022/05/06 03:05:37;;;;;;;;;;;22.80;42.40;;;;;;6171005;28;19938;-53
2022/05/06 03:08:40;;;;;;;;;;;22.50;42.20;;;;;;6173570;28;19929;-56
2022/05/06 03:11:42;;;;;;;;;;;22.70;42.40;;;;;;6170112;28;19936;-56
2022/05/06 03:14:51;;;;;;;;;;;22.40;42.20;;;;;;6176639;28;19999;-56
2022/05/06 03:18:06;;;;;;;;;;;22.70;42.30;;;;;;6176510;28;19995;-56
2022/05/06 03:21:07;;;;;;;;;;;22.90;42.40;;;;;;6180645;28;19929;-58
2022/05/06 03:24:09;;;;;;;;;;;22.80;42.50;;;;;;6186937;28;20880;-57
2022/05/06 03:30:30;;;;;;;;;;;22.80;42.40;;;;;;6169451;28;21338;-55
2022/05/06 03:33:47;;;;;;;;;;;22.40;42.20;;;;;;6184891;28;20644;-53
2022/05/06 03:36:56;;;;;;;;;;;22.80;42.50;;;;;;6183970;28;19929;-54
2022/05/06 03:39:58;;;;;;;;;;;22.40;42.40;;;;;;6178667;28;19921;-52
2022/05/06 03:43:01;;;;;;;;;;;22.80;42.60;;;;;;6182659;28;19965;-54
2022/05/06 03:46:03;;;;;;;;;;;23.10;42.80;;;;;;6184460;28;20123;-49
2022/05/06 03:49:05;;;;;;;;;;;22.90;42.60;;;;;;6182631;28;19925;-54
2022/05/06 03:52:08;;;;;;;;;;;22.30;42.30;;;;;;6183399;28;19943;-50
2022/05/06 03:55:10;;;;;;;;;;;22.50;42.40;;;;;;6185175;28;20964;-56
2022/05/06 03:58:12;;;;;;;;;;;22.30;42.30;;;;;;6188775;28;19921;-52
2022/05/06 04:01:16;;;;;;;;;;;22.70;42.50;;;;;;6186626;28;20059;-54
2022/05/06 04:04:21;;;;;;;;;;;22.90;42.60;;;;;;6187515;28;19929;-57
2022/05/06 04:07:23;;;;;;;;;;;22.80;42.60;;;;;;6188921;28;19929;-54
2022/05/06 04:10:25;;;;;;;;;;;22.50;42.40;;;;;;6189253;28;19976;-53
2022/05/06 04:13:28;;;;;;;;;;;22.50;42.50;;;;;;6183234;28;19929;-52
2022/05/06 04:16:30;;;;;;;;;;;22.50;42.50;;;;;;6174392;28;20778;-53
2022/05/06 04:19:35;;;;;;;;;;;22.70;42.60;;;;;;6178819;28;19925;-52
2022/05/06 04:26:02;;;;;;;;;;;22.80;42.70;;;;;;6184892;28;19995;-54
2022/05/06 04:29:06;;;;;;;;;;;22.40;42.50;;;;;;6178881;28;19929;-53
2022/05/06 04:32:09;;;;;;;;;;;22.70;42.60;;;;;;6180099;28;19959;-53
2022/05/06 04:35:11;;;;;;;;;;;22.60;42.60;;;;;;6183219;28;20967;-55
2022/05/06 04:38:13;;;;;;;;;;;22.60;42.60;;;;;;6168073;28;20234;-51
2022/05/06 04:41:15;;;;;;;;;;;22.80;42.70;;;;;;6185338;28;19936;-52
2022/05/06 04:44:18;;;;;;;;;;;22.70;42.80;;;;;;6184635;28;19929;-54
2022/05/06 04:47:20;;;;;;;;;;;22.40;42.60;;;;;;6185196;28;19983;-51
2022/05/06 04:50:22;;;;;;;;;;;22.70;42.70;;;;;;6178251;28;19936;-55
2022/05/06 04:53:25;;;;;;;;;;;22.40;42.60;;;;;;6165071;28;19929;-52
2022/05/06 04:56:28;;;;;;;;;;;22.60;42.80;;;;;;6179566;28;21486;-51
2022/05/06 04:59:40;;;;;;;;;;;22.60;42.70;;;;;;6180157;28;19936;-49
2022/05/06 05:02:41;;;;;;;;;;;22.50;42.70;;;;;;6176295;28;19969;-52
2022/05/06 05:05:44;;;;;;;;;;;22.30;42.70;;;;;;6179444;28;19975;-51
2022/05/06 05:08:46;;;;;;;;;;;22.70;43.00;;;;;;6181084;28;19932;-48
2022/05/06 05:11:49;;;;;;;;;;;22.70;42.90;;;;;;6182683;28;19935;-55
2022/05/06 05:15:01;;;;;;;;;;;22.40;42.70;;;;;;6179929;28;19929;-52
2022/05/06 05:18:07;;;;;;;;;;;22.30;42.70;;;;;;6179728;28;20833;-51
2022/05/06 05:21:09;;;;;;;;;;;22.50;42.80;;;;;;6181787;28;20747;-54
2022/05/06 05:24:11;;;;;;;;;;;22.80;43.00;;;;;;6174292;28;20655;-49
2022/05/06 05:27:15;;;;;;;;;;;22.70;43.00;;;;;;6182751;28;19929;-49
2022/05/06 05:30:17;;;;;;;;;;;22.70;43.00;;;;;;6175432;28;19987;-50
2022/05/06 05:33:19;;;;;;;;;;;22.70;43.00;;;;;;6179115;28;19921;-52
2022/05/06 05:36:26;;;;;;;;;;;22.80;43.10;;;;;;6183244;28;19924;-52
2022/05/06 05:39:31;;;;;;;;;;;22.60;43.10;;;;;;6164683;28;19929;-54
2022/05/06 05:42:35;;;;;;;;;;;22.30;42.90;;;;;;6178973;28;19929;-53
2022/05/06 05:48:56;;;;;;;;;;;22.80;43.20;;;;;;6179851;28;19929;-54
2022/05/06 05:51:58;;;;;;;;;;;22.60;43.10;;;;;;6179013;28;20178;-52
2022/05/06 05:55:01;;;;;;;;;;;22.50;43.00;;;;;;6172525;28;19929;-53
2022/05/06 05:58:03;;;;;;;;;;;22.60;43.10;;;;;;6174812;28;21097;-51
2022/05/06 06:01:05;;;;;;;;;;;22.70;43.10;;;;;;6163847;28;20044;-51
2022/05/06 06:04:11;;;;;;;;;;;22.70;43.10;;;;;;6162517;28;19998;-54
2022/05/06 06:07:18;;;;;;;;;;;22.60;43.20;;;;;;6169712;28;21013;-53
2022/05/06 06:10:26;;;;;;;;;;;22.50;43.00;;;;;;6165872;28;19928;-51
2022/05/06 06:13:36;;;;;;;;;;;22.80;43.20;;;;;;6150582;28;19990;-50
2022/05/06 06:16:40;;;;;;;;;;;22.70;43.20;;;;;;6162357;28;19928;-54
2022/05/06 06:19:43;;;;;;;;;;;22.80;43.20;;;;;;6150385;28;20515;-53
2022/05/06 06:22:45;;;;;;;;;;;22.30;43.00;;;;;;6147137;28;20063;-53
2022/05/06 06:25:48;;;;;;;;;;;22.60;43.20;;;;;;6152111;28;19929;-50
2022/05/06 06:28:50;;;;;;;;;;;22.70;43.30;;;;;;6143568;28;21090;-50
2022/05/06 06:31:52;;;;;;;;;;;22.70;43.30;;;;;;6155386;28;20071;-53
2022/05/06 06:34:55;;;;;;;;;;;22.60;43.20;;;;;;6140575;28;19936;-51
2022/05/06 06:38:00;;;;;;;;;;;22.70;43.30;;;;;;6143310;28;19925;-56
2022/05/06 06:41:05;;;;;;;;;;;22.50;43.10;;;;;;6132837;28;19928;-50
2022/05/06 06:44:07;;;;;;;;;;;22.80;43.20;;;;;;6106272;28;19936;-50
2022/05/06 06:47:30;;;;;;;;;;;22.60;42.60;;;;;;6130389;28;20946;-55
2022/05/06 06:50:45;;;;;;;;;;;22.80;43.20;;;;;;6119327;28;20517;-53
2022/05/06 06:53:53;;;;;;;;;;;22.40;43.00;;;;;;6099761;28;19929;-55
2022/05/06 06:56:55;;;;;;;;;;;22.70;43.20;;;;;;6094914;28;20047;-53
2022/05/06 06:59:56;;;;;;;;;;;22.70;43.20;;;;;;6056531;28;20071;-55
2022/05/06 07:02:59;;;;;;;;;;;22.70;43.20;;;;;;6077043;28;19933;-54
2022/05/06 07:12:37;;;;;;;;;;;22.70;43.20;;;;;;6038779;28;19929;-48
2022/05/06 07:15:38;;;;;;;;;;;22.80;43.30;;;;;;6071072;28;19929;-53
2022/05/06 07:18:40;;;;;;;;;;;22.50;43.10;;;;;;6070837;28;19969;-55
2022/05/06 07:21:42;;;;;;;;;;;22.90;43.20;;;;;;6088107;28;20162;-55
2022/05/06 07:24:43;;;;;;;;;;;22.40;43.00;;;;;;6062162;28;21989;-57
2022/05/06 07:27:45;;;;;;;;;;;22.70;43.10;;;;;;6072260;28;19936;-61
2022/05/06 07:30:46;;;;;;;;;;;22.90;43.20;;;;;;6060293;28;22816;-53
2022/05/06 07:33:49;;;;;;;;;;;22.80;43.20;;;;;;6045187;28;19953;-53
2022/05/06 07:36:51;;;;;;;;;;;22.90;43.20;;;;;;6032374;28;21461;-55
2022/05/06 07:39:52;;;;;;;;;;;22.70;43.10;;;;;;6049666;28;20040;-52
2022/05/06 07:43:00;;;;;;;;;;;22.80;43.10;;;;;;6060611;28;20035;-55
2022/05/06 07:46:01;;;;;;;;;;;22.70;43.10;;;;;;6038984;28;20067;-51
2022/05/06 07:49:04;;;;;;;;;;;22.50;43.00;;;;;;6046597;28;20058;-52
2022/05/06 07:52:06;;;;;;;;;;;23.00;43.20;;;;;;6025141;28;21466;-52
2022/05/06 07:55:09;;;;;;;;;;;23.00;43.20;;;;;;6040667;28;19958;-56
2022/05/06 07:58:36;;;;;;;;;;;22.80;43.60;;;;;;6058706;28;20508;-54
2022/05/06 08:04:54;;;;;;;;;;;22.90;43.10;;;;;;6020020;28;19930;-49
2022/05/06 08:07:56;;;;;;;;;;;22.90;43.20;;;;;;6036500;28;19961;-58
2022/05/06 08:14:24;;;;;;;;;;;23.10;43.20;;;;;;6060213;28;20652;-55
2022/05/06 08:17:25;;;;;;;;;;;23.10;43.20;;;;;;6069741;28;20111;-54
2022/05/06 08:20:27;;;;;;;;;;;22.90;43.20;;;;;;6033013;28;19929;-53
2022/05/06 08:23:29;;;;;;;;;;;22.80;43.00;;;;;;6030389;28;19929;-55
2022/05/06 08:26:30;;;;;;;;;;;23.10;43.20;;;;;;6049209;28;19930;-50
2022/05/06 08:29:33;;;;;;;;;;;23.10;43.20;;;;;;6042346;28;19929;-53
2022/05/06 08:32:34;;;;;;;;;;;22.80;43.00;;;;;;6024680;28;19929;-52
2022/05/06 08:35:36;;;;;;;;;;;23.00;43.20;;;;;;6060971;28;19936;-52
2022/05/06 08:38:38;;;;;;;;;;;23.10;43.20;;;;;;6055321;28;20039;-55
2022/05/06 08:41:40;;;;;;;;;;;23.20;43.30;;;;;;6048437;28;19929;-50
2022/05/06 08:51:15;;;;;;;;;;;23.10;43.30;;;;;;6050941;28;19933;-52
2022/05/06 08:54:17;;;;;;;;;;;23.20;43.20;;;;;;6065227;28;20693;-51
2022/05/06 08:57:19;;;;;;;;;;;23.20;43.20;;;;;;6068215;28;20063;-51
2022/05/06 09:00:22;;;;;;;;;;;23.20;43.30;;;;;;6077806;28;21211;-56
2022/05/06 09:03:24;;;;;;;;;;;23.10;43.10;;;;;;6073662;28;21832;-54
2022/05/06 09:06:27;;;;;;;;;;;23.10;43.20;;;;;;6082475;28;19929;-50
2022/05/06 09:09:29;;;;;;;;;;;23.10;43.20;;;;;;6093347;28;20368;-53
2022/05/06 09:19:11;;;;;;;;;;;23.20;43.30;;;;;;6080217;28;20017;-52
2022/05/06 09:22:14;;;;;;;;;;;23.40;43.40;;;;;;6088219;28;21081;-54
2022/05/06 09:25:30;;;;;;;;;;;23.20;43.20;;;;;;6072447;28;19936;-53
2022/05/06 09:28:32;;;;;;;;;;;23.20;43.20;;;;;;6077127;28;19935;-59
2022/05/06 09:31:34;;;;;;;;;;;23.20;43.30;;;;;;6065073;28;20893;-51
2022/05/06 09:34:36;;;;;;;;;;;23.30;43.30;;;;;;6087160;28;19967;-53
2022/05/06 09:37:39;;;;;;;;;;;22.90;43.30;;;;;;6085432;28;19929;-55
2022/05/06 09:40:46;;;;;;;;;;;23.20;43.30;;;;;;6075477;28;19929;-52
2022/05/06 09:43:57;;;;;;;;;;;23.10;43.30;;;;;;6068338;28;19928;-53
2022/05/06 09:47:07;;;;;;;;;;;23.30;43.40;;;;;;6082869;28;19936;-52
2022/05/06 09:50:09;;;;;;;;;;;23.00;43.30;;;;;;6070525;28;19928;-51
2022/05/06 09:53:12;;;;;;;;;;;23.20;43.40;;;;;;6060291;28;22437;-54
2022/05/06 09:56:13;;;;;;;;;;;23.30;43.50;;;;;;6078257;28;19991;-50
2022/05/06 09:59:15;;;;;;;;;;;22.80;43.30;;;;;;6071016;28;19964;-52
2022/05/06 10:02:17;;;;;;;;;;;23.20;43.60;;;;;;6074734;28;21219;-54
2022/05/06 10:05:19;;;;;;;;;;;23.20;43.60;;;;;;6028675;28;20382;-54
2022/05/06 10:08:21;;;;;;;;;;;23.10;43.50;;;;;;6060446;28;21542;-55
2022/05/06 10:11:29;;;;;;;;;;;23.20;43.60;;;;;;6073485;28;19929;-51
2022/05/06 10:14:31;;;;;;;;;;;23.20;43.80;;;;;;6054217;28;19929;-55
2022/05/06 10:17:46;;;;;;;;;;;23.20;43.70;;;;;;6062928;28;19929;-48
2022/05/06 10:20:48;;;;;;;;;;;23.30;43.80;;;;;;6069803;28;19935;-54
2022/05/06 10:23:52;;;;;;;;;;;23.30;43.80;;;;;;6086144;28;19929;-53
2022/05/06 10:26:53;;;;;;;;;;;23.30;43.70;;;;;;6073585;28;19938;-54
2022/05/06 10:33:07;;;;;;;;;;;23.10;43.60;;;;;;6082510;28;19929;-52
2022/05/06 10:36:08;;;;;;;;;;;23.40;43.70;;;;;;6104323;28;19935;-51
2022/05/06 10:39:18;;;;;;;;;;;23.20;43.60;;;;;;6114300;28;20003;-56
2022/05/06 10:42:30;;;;;;;;;;;23.30;43.60;;;;;;6109642;28;20064;-56
2022/05/06 10:45:34;;;;;;;;;;;23.40;43.60;;;;;;6114810;28;19921;-53
2022/05/06 10:48:35;;;;;;;;;;;23.40;43.70;;;;;;6117367;28;20074;-53
2022/05/06 10:51:37;;;;;;;;;;;23.20;43.60;;;;;;6123943;28;19997;-53
2022/05/06 10:54:39;;;;;;;;;;;23.50;43.90;;;;;;6095338;28;20364;-55
2022/05/06 10:57:55;;;;;;;;;;;23.40;43.80;;;;;;6102097;28;20035;-56
2022/05/06 11:00:58;;;;;;;;;;;23.30;43.80;;;;;;6086831;28;19929;-57
2022/05/06 11:04:00;;;;;;;;;;;23.50;43.90;;;;;;6090774;28;19999;-53
2022/05/06 11:07:10;;;;;;;;;;;23.30;43.90;;;;;;6092139;28;21607;-50
2022/05/06 11:10:13;;;;;;;;;;;23.20;43.80;;;;;;6103176;28;20827;-56
2022/05/06 11:13:17;;;;;;;;;;;23.70;44.10;;;;;;6116763;28;19987;-56
2022/05/06 11:16:20;;;;;;;;;;;23.30;44.00;;;;;;6097526;28;19933;-55
2022/05/06 11:19:32;;;;;;;;;;;23.50;44.10;;;;;;6118225;28;19982;-56
2022/05/06 11:22:34;;;;;;;;;;;23.20;43.90;;;;;;6117295;28;19968;-56
2022/05/06 11:25:37;;;;;;;;;;;23.40;44.20;;;;;;6098509;28;22048;-54
2022/05/06 11:28:38;;;;;;;;;;;23.50;44.20;;;;;;6115482;28;20048;-50
2022/05/06 11:31:45;;;;;;;;;;;23.40;44.10;;;;;;6093813;28;19929;-51
2022/05/06 11:34:54;;;;;;;;;;;23.40;44.10;;;;;;6079196;28;21080;-49
2022/05/06 11:37:56;;;;;;;;;;;23.30;44.10;;;;;;6093387;28;19960;-50
2022/05/06 11:41:06;;;;;;;;;;;23.50;44.20;;;;;;6099832;28;21359;-53
2022/05/06 11:44:07;;;;;;;;;;;23.10;44.00;;;;;;6063684;28;21056;-51
2022/05/06 11:50:25;;;;;;;;;;;23.40;44.20;;;;;;6081471;28;19937;-54
2022/05/06 11:53:27;;;;;;;;;;;23.50;44.30;;;;;;6084660;28;19929;-55
2022/05/06 11:56:29;;;;;;;;;;;22.80;43.90;;;;;;6081815;28;19928;-53
2022/05/06 11:59:31;;;;;;;;;;;23.40;44.20;;;;;;6082582;28;21404;-57
2022/05/06 12:02:32;;;;;;;;;;;23.50;44.30;;;;;;6082876;28;20114;-51
2022/05/06 12:05:35;;;;;;;;;;;23.50;44.30;;;;;;6099648;28;19929;-56
2022/05/06 12:08:37;;;;;;;;;;;23.40;44.30;;;;;;6069126;28;19936;-52
2022/05/06 12:11:39;;;;;;;;;;;23.30;44.30;;;;;;6034399;28;20137;-53
2022/05/06 12:14:40;;;;;;;;;;;23.40;44.30;;;;;;6079915;28;21029;-55
2022/05/06 12:17:42;;;;;;;;;;;23.30;44.20;;;;;;6067467;28;19929;-54
2022/05/06 12:20:43;;;;;;;;;;;23.00;44.10;;;;;;6051401;28;19933;-52
2022/05/06 12:23:53;;;;;;;;;;;23.50;44.30;;;;;;6051889;28;21195;-52
2022/05/06 12:26:55;;;;;;;;;;;23.40;44.30;;;;;;6050636;28;19928;-53
2022/05/06 12:29:58;;;;;;;;;;;23.50;44.30;;;;;;6060527;28;19929;-54
2022/05/06 12:33:01;;;;;;;;;;;23.40;44.30;;;;;;6063073;28;19936;-51
2022/05/06 12:36:04;;;;;;;;;;;23.30;44.30;;;;;;6047811;28;20044;-53
2022/05/06 12:42:43;;;;;;;;;;;23.60;44.50;;;;;;6066107;28;19968;-54
2022/05/06 12:46:01;;;;;;;;;;;23.40;44.40;;;;;;6050756;28;20011;-50
2022/05/06 12:52:17;;;;;;;;;;;23.40;44.40;;;;;;6068432;28;20000;-56
2022/05/06 12:55:18;;;;;;;;;;;23.40;44.40;;;;;;6083153;28;19929;-57
2022/05/06 12:58:23;;;;;;;;;;;23.60;44.40;;;;;;6087437;28;19930;-53
2022/05/06 13:01:25;;;;;;;;;;;23.40;44.30;;;;;;6056400;28;19936;-56
2022/05/06 13:04:26;;;;;;;;;;;23.30;44.20;;;;;;6060170;28;22357;-57
2022/05/06 13:07:28;;;;;;;;;;;23.60;44.40;;;;;;6069726;28;21137;-56
2022/05/06 13:10:29;;;;;;;;;;;23.50;44.30;;;;;;6059484;28;19929;-56
2022/05/06 13:13:31;;;;;;;;;;;23.40;45.00;;;;;;6044195;28;20070;-54
2022/05/06 13:16:34;;;;;;;;;;;23.50;44.30;;;;;;6064754;28;21023;-53
2022/05/06 13:19:36;;;;;;;;;;;23.60;44.40;;;;;;6080120;28;19929;-53
2022/05/06 13:23:02;;;;;;;;;;;23.20;44.30;;;;;;6069722;28;20027;-52
2022/05/06 13:26:04;;;;;;;;;;;23.50;44.30;;;;;;6058663;28;19929;-55
2022/05/06 13:29:06;;;;;;;;;;;23.60;44.40;;;;;;6056032;28;19964;-52
2022/05/06 13:32:08;;;;;;;;;;;23.60;44.40;;;;;;6055376;28;19968;-54
2022/05/06 13:35:09;;;;;;;;;;;23.50;44.40;;;;;;6081192;28;19929;-52
2022/05/06 13:38:11;;;;;;;;;;;23.50;44.40;;;;;;6082524;28;19943;-55
2022/05/06 13:41:13;;;;;;;;;;;23.40;44.40;;;;;;6091947;28;19969;-55
2022/05/06 13:44:15;;;;;;;;;;;23.50;44.40;;;;;;6094685;28;21139;-53
2022/05/06 13:47:17;;;;;;;;;;;23.50;44.30;;;;;;6070715;28;19929;-52
2022/05/06 13:50:18;;;;;;;;;;;23.70;44.40;;;;;;6077363;28;19936;-53
2022/05/06 13:53:20;;;;;;;;;;;23.70;44.40;;;;;;6047631;28;21169;-55
2022/05/06 13:59:38;;;;;;;;;;;23.60;44.30;;;;;;6082468;28;20105;-55
2022/05/06 14:02:39;;;;;;;;;;;23.50;44.30;;;;;;6063101;28;19929;-55
2022/05/06 14:05:47;;;;;;;;;;;23.60;44.40;;;;;;6020993;28;19929;-53
2022/05/06 14:08:48;;;;;;;;;;;23.60;44.40;;;;;;6008081;28;19936;-54
2022/05/06 14:11:50;;;;;;;;;;;23.50;44.30;;;;;;6026352;28;21474;-56
2022/05/06 14:14:52;;;;;;;;;;;23.60;44.30;;;;;;6036362;28;19936;-55
2022/05/06 14:17:54;;;;;;;;;;;23.50;44.30;;;;;;6040676;28;19929;-53
2022/05/06 14:20:56;;;;;;;;;;;23.60;44.30;;;;;;6069535;28;20067;-52
2022/05/06 14:23:58;;;;;;;;;;;23.60;44.30;;;;;;6071799;28;20154;-55
2022/05/06 14:26:59;;;;;;;;;;;23.70;44.40;;;;;;6054923;28;21131;-57
2022/05/06 14:30:01;;;;;;;;;;;23.70;44.30;;;;;;6051978;28;19956;-53
2022/05/06 14:33:03;;;;;;;;;;;23.70;44.40;;;;;;6036176;28;19936;-55
2022/05/06 14:36:05;;;;;;;;;;;23.70;44.30;;;;;;6052582;28;20287;-57
2022/05/06 14:39:06;;;;;;;;;;;23.60;44.20;;;;;;6059350;28;19929;-56
2022/05/06 14:42:07;;;;;;;;;;;23.60;44.20;;;;;;6042989;28;19929;-58
2022/05/06 14:45:10;;;;;;;;;;;23.70;44.40;;;;;;6027609;28;19983;-57
2022/05/06 14:48:11;;;;;;;;;;;23.60;44.20;;;;;;6043723;28;20054;-55
2022/05/06 14:51:13;;;;;;;;;;;23.40;44.10;;;;;;6062141;28;20022;-55
2022/05/06 14:54:15;;;;;;;;;;;23.50;44.20;;;;;;6056905;28;20135;-55
2022/05/06 14:57:16;;;;;;;;;;;23.60;44.20;;;;;;6055587;28;19983;-57
2022/05/06 15:00:19;;;;;;;;;;;23.80;44.30;;;;;;6067543;28;19933;-54
2022/05/06 15:03:23;;;;;;;;;;;23.70;44.30;;;;;;6069469;28;20010;-56
2022/05/06 15:06:24;;;;;;;;;;;23.70;44.30;;;;;;6055904;28;19995;-56
2022/05/06 15:09:26;;;;;;;;;;;23.60;44.20;;;;;;6070626;28;21207;-58
2022/05/06 15:12:27;;;;;;;;;;;23.70;44.20;;;;;;6048404;28;19929;-54
2022/05/06 15:15:29;;;;;;;;;;;23.70;44.30;;;;;;6039125;28;19929;-56
2022/05/06 15:21:46;;;;;;;;;;;23.70;44.20;;;;;;6102790;28;20503;-57
2022/05/06 15:24:48;;;;;;;;;;;23.60;44.20;;;;;;6099627;28;19937;-56
2022/05/06 15:27:49;;;;;;;;;;;23.70;44.20;;;;;;6106294;28;19965;-54
2022/05/06 15:30:51;;;;;;;;;;;23.70;44.20;;;;;;6109914;28;19936;-51
2022/05/06 15:33:53;;;;;;;;;;;23.70;44.20;;;;;;6120311;28;20884;-53
2022/05/06 15:36:55;;;;;;;;;;;23.70;44.20;;;;;;6120140;28;21080;-55
2022/05/06 15:39:56;;;;;;;;;;;23.70;44.20;;;;;;6109268;28;19936;-56
2022/05/06 15:43:04;;;;;;;;;;;23.70;44.20;;;;;;6126013;28;20096;-55
2022/05/06 15:46:06;;;;;;;;;;;23.70;44.20;;;;;;6100558;28;19929;-54
2022/05/06 15:49:13;;;;;;;;;;;23.80;44.20;;;;;;6115231;28;19968;-54
2022/05/06 15:52:16;;;;;;;;;;;23.70;44.20;;;;;;6132936;28;19928;-56
2022/05/06 15:55:17;;;;;;;;;;;23.60;44.10;;;;;;6114860;28;20721;-54
2022/05/06 15:58:19;;;;;;;;;;;23.70;44.20;;;;;;6136576;28;19941;-53
2022/05/06 16:01:22;;;;;;;;;;;23.70;44.20;;;;;;6124061;28;21432;-56
2022/05/06 16:04:24;;;;;;;;;;;23.70;44.20;;;;;;6133988;28;19935;-57
2022/05/06 16:07:25;;;;;;;;;;;23.90;44.30;;;;;;6132492;28;19929;-55
2022/05/06 16:10:27;;;;;;;;;;;23.70;44.20;;;;;;6137283;28;19952;-54
2022/05/06 16:13:29;;;;;;;;;;;23.80;44.40;;;;;;6129324;28;19932;-52
2022/05/06 16:16:31;;;;;;;;;;;23.70;44.20;;;;;;6144064;28;20774;-53
2022/05/06 16:19:33;;;;;;;;;;;23.80;44.30;;;;;;6137279;28;19999;-52
2022/05/06 16:22:35;;;;;;;;;;;23.70;44.30;;;;;;6146882;28;19929;-55
2022/05/06 16:25:39;;;;;;;;;;;23.70;44.20;;;;;;6137873;28;20897;-55
2022/05/06 16:28:41;;;;;;;;;;;23.50;44.10;;;;;;6143160;28;20102;-57
2022/05/06 16:31:43;;;;;;;;;;;23.60;44.20;;;;;;6140950;28;20056;-52
2022/05/06 16:37:59;;;;;;;;;;;23.70;44.20;;;;;;6145985;28;20048;-54
2022/05/06 16:41:00;;;;;;;;;;;23.50;44.10;;;;;;6154165;28;20338;-55
2022/05/06 16:44:03;;;;;;;;;;;23.70;44.20;;;;;;6158973;28;19928;-57
2022/05/06 16:47:05;;;;;;;;;;;23.70;44.20;;;;;;6159146;28;19972;-55
2022/05/06 16:50:07;;;;;;;;;;;23.70;44.20;;;;;;6149666;28;19929;-53
2022/05/06 16:56:35;;;;;;;;;;;23.80;44.20;;;;;;6147364;28;19936;-56
2022/05/06 16:59:37;;;;;;;;;;;23.80;44.30;;;;;;6129286;28;19929;-56
2022/05/06 17:02:39;;;;;;;;;;;23.80;44.20;;;;;;6145983;28;19929;-56
2022/05/06 17:05:41;;;;;;;;;;;23.80;44.20;;;;;;6130518;28;20915;-55
2022/05/06 17:08:42;;;;;;;;;;;24.00;44.30;;;;;;6135931;28;19936;-54
2022/05/06 17:11:44;;;;;;;;;;;23.70;44.20;;;;;;6144130;28;20047;-53
2022/05/06 17:14:46;;;;;;;;;;;23.50;44.00;;;;;;6148973;28;20023;-57
2022/05/06 17:17:49;;;;;;;;;;;23.80;44.20;;;;;;6152132;28;19929;-55
2022/05/06 17:20:51;;;;;;;;;;;23.80;44.20;;;;;;6166719;28;19963;-57
2022/05/06 17:23:53;;;;;;;;;;;23.90;44.30;;;;;;6152297;28;19971;-57
2022/05/06 17:26:54;;;;;;;;;;;23.80;44.20;;;;;;6164170;28;21764;-57
2022/05/06 17:29:56;;;;;;;;;;;24.00;44.30;;;;;;6152523;28;21692;-57
2022/05/06 17:32:58;;;;;;;;;;;23.60;44.10;;;;;;6165632;28;21537;-56
2022/05/06 17:35:59;;;;;;;;;;;23.90;44.20;;;;;;6165551;28;20762;-56
2022/05/06 17:39:07;;;;;;;;;;;23.80;44.20;;;;;;6168921;28;19952;-57
2022/05/06 17:42:10;;;;;;;;;;;23.80;44.20;;;;;;6172258;28;19936;-53
2022/05/06 17:45:13;;;;;;;;;;;23.70;44.20;;;;;;6165009;28;19928;-57
2022/05/06 17:48:15;;;;;;;;;;;23.70;44.20;;;;;;6168390;28;19935;-55
2022/05/06 17:51:18;;;;;;;;;;;23.80;44.20;;;;;;6179563;28;19929;-57
2022/05/06 17:54:19;;;;;;;;;;;23.70;44.10;;;;;;6178569;28;20047;-56
2022/05/06 17:57:21;;;;;;;;;;;23.70;44.20;;;;;;6170859;28;19935;-55
2022/05/06 18:03:38;;;;;;;;;;;23.80;44.10;;;;;;6171670;28;19956;-54
2022/05/06 18:06:40;;;;;;;;;;;23.80;44.10;;;;;;6168955;28;19983;-52
2022/05/06 18:09:41;;;;;;;;;;;23.80;44.20;;;;;;6173947;28;19935;-52
2022/05/06 18:12:43;;;;;;;;;;;23.90;44.20;;;;;;6173402;28;20058;-53
2022/05/06 18:15:44;;;;;;;;;;;23.90;44.10;;;;;;6169266;28;20075;-56
2022/05/06 18:18:48;;;;;;;;;;;23.90;44.10;;;;;;6173412;28;20549;-55
2022/05/06 18:21:49;;;;;;;;;;;23.70;44.00;;;;;;6173757;28;19936;-52
2022/05/06 18:24:50;;;;;;;;;;;23.70;44.10;;;;;;6171456;28;20064;-52
2022/05/06 18:27:52;;;;;;;;;;;23.50;43.90;;;;;;6165979;28;19930;-52
2022/05/06 18:30:53;;;;;;;;;;;23.50;43.90;;;;;;6168484;28;19964;-58
2022/05/06 18:33:55;;;;;;;;;;;23.80;44.20;;;;;;6172080;28;19925;-56
2022/05/06 18:36:56;;;;;;;;;;;23.70;44.00;;;;;;6173787;28;20840;-57
2022/05/06 18:39:58;;;;;;;;;;;23.80;44.20;;;;;;6177374;28;20813;-56
2022/05/06 18:43:01;;;;;;;;;;;23.90;44.20;;;;;;6182814;28;19940;-58
2022/05/06 18:46:02;;;;;;;;;;;24.00;44.30;;;;;;6179251;28;19976;-58
2022/05/06 18:49:04;;;;;;;;;;;23.90;44.30;;;;;;6177202;28;21689;-55
2022/05/06 18:52:06;;;;;;;;;;;23.70;44.10;;;;;;6176680;28;20388;-57
2022/05/06 18:55:08;;;;;;;;;;;23.90;44.20;;;;;;6173896;28;19968;-55